Time;durP1;ratioP1;P1;durP2;ratioP2;P2;SDS_P1;SDS_P2;PMS_P1;PMS_P2;Temp;Humidity;BMP_temperature;BMP_pressure;BME280_temperature;BME280_humidity;BME280_pressure;Samples;Min_cycle;Max_cycle;Signal;HPM_P1;HPM_P2
2022/08/24 00:00:18;;;;;;;4.10;3.80;;;17.50;99.90;;;;;;5072656;28;20640;-80
2022/08/24 00:02:46;;;;;;;6.73;4.37;;;17.40;99.90;;;;;;5072864;28;20663;-80
2022/08/24 00:05:13;;;;;;;5.50;4.30;;;17.40;99.90;;;;;;5072325;28;20631;-80
2022/08/24 00:07:40;;;;;;;5.60;4.60;;;17.40;99.90;;;;;;5072089;28;20659;-80
2022/08/24 00:10:09;;;;;;;4.63;4.33;;;17.40;99.90;;;;;;5071419;28;20644;-80
2022/08/24 00:12:37;;;;;;;4.47;4.00;;;17.40;99.90;;;;;;5071234;28;20633;-80
2022/08/24 00:15:06;;;;;;;5.20;4.17;;;17.40;99.90;;;;;;5070969;28;20626;-80
2022/08/24 00:17:33;;;;;;;4.13;3.83;;;17.30;99.90;;;;;;5070295;28;20754;-81
2022/08/24 00:20:01;;;;;;;5.00;4.43;;;17.30;99.90;;;;;;5071435;28;20701;-80
2022/08/24 00:22:28;;;;;;;4.87;3.80;;;17.30;99.90;;;;;;5071771;28;20632;-80
2022/08/24 00:24:55;;;;;;;5.93;3.93;;;17.30;99.90;;;;;;5069240;28;20999;-80
2022/08/24 00:27:23;;;;;;;4.70;4.30;;;17.20;99.90;;;;;;5070152;28;20620;-80
2022/08/24 00:29:49;;;;;;;7.43;4.40;;;17.20;99.90;;;;;;5072631;28;20632;-80
2022/08/24 00:32:16;;;;;;;4.33;3.97;;;17.10;99.90;;;;;;5071813;28;20628;-80
2022/08/24 00:34:43;;;;;;;4.70;4.30;;;17.10;99.90;;;;;;5070874;28;20663;-80
2022/08/24 00:37:11;;;;;;;4.50;4.10;;;17.10;99.90;;;;;;5071264;28;20733;-81
2022/08/24 00:39:38;;;;;;;4.23;3.70;;;17.10;99.90;;;;;;5071385;28;20640;-80
2022/08/24 00:42:05;;;;;;;5.30;4.00;;;17.00;99.90;;;;;;5070094;28;20628;-80
2022/08/24 00:44:33;;;;;;;4.50;4.20;;;17.00;99.90;;;;;;5071586;28;20660;-81
2022/08/24 00:47:03;;;;;;;4.37;4.07;;;17.00;99.90;;;;;;5071241;28;21203;-81
2022/08/24 00:49:36;;;;;;;4.93;4.43;;;16.90;99.90;;;;;;5070065;28;20634;-81
2022/08/24 00:52:07;;;;;;;7.07;4.70;;;17.00;99.90;;;;;;5069699;28;21378;-81
2022/08/24 00:54:43;;;;;;;4.07;3.87;;;16.80;99.90;;;;;;5070634;28;20666;-81
2022/08/24 00:57:12;;;;;;;4.83;4.33;;;16.80;99.90;;;;;;5071027;28;20662;-81
2022/08/24 00:59:44;;;;;;;6.83;4.80;;;16.80;99.90;;;;;;5071792;28;20714;-81
2022/08/24 01:02:16;;;;;;;4.70;4.30;;;16.80;99.90;;;;;;5070852;28;20633;-81
2022/08/24 01:04:49;;;;;;;5.03;4.53;;;16.80;99.90;;;;;;5071057;28;20660;-81
2022/08/24 01:07:16;;;;;;;6.13;5.07;;;16.70;99.90;;;;;;5070786;28;21325;-80
2022/08/24 01:09:44;;;;;;;5.53;4.50;;;16.80;99.90;;;;;;5071233;28;21125;-81
2022/08/24 01:12:11;;;;;;;4.57;3.90;;;16.70;99.90;;;;;;5069561;28;20628;-81
2022/08/24 01:14:39;;;;;;;6.20;4.63;;;16.70;99.90;;;;;;5070404;28;20653;-81
2022/08/24 01:19:57;;;;;;;5.03;4.10;;;16.70;99.90;;;;;;5070568;28;20651;-81
2022/08/24 01:22:44;;;;;;;6.40;4.30;;;16.70;99.90;;;;;;5067131;28;21063;-80
2022/08/24 01:25:12;;;;;;;5.40;4.07;;;16.60;99.90;;;;;;5067749;28;21272;-81
2022/08/24 01:27:41;;;;;;;5.00;4.50;;;16.60;99.90;;;;;;5070387;28;20616;-81
2022/08/24 01:30:12;;;;;;;4.27;3.93;;;16.50;99.90;;;;;;5070711;28;20635;-80
2022/08/24 01:32:39;;;;;;;4.83;4.20;;;16.50;99.90;;;;;;5069923;28;20648;-80
2022/08/24 01:35:07;;;;;;;5.27;4.87;;;16.40;99.90;;;;;;5069297;28;20681;-81
2022/08/24 01:37:35;;;;;;;5.20;4.80;;;16.40;99.90;;;;;;5069562;28;20661;-81
2022/08/24 01:40:06;;;;;;;4.20;3.90;;;16.40;99.90;;;;;;5068199;28;20624;-81
2022/08/24 01:42:34;;;;;;;5.40;4.90;;;16.30;99.90;;;;;;5069680;28;22683;-81
2022/08/24 01:45:02;;;;;;;5.63;4.47;;;16.30;99.90;;;;;;5069263;28;21263;-81
2022/08/24 01:47:29;;;;;;;5.93;4.80;;;16.30;99.90;;;;;;5069719;28;20651;-80
2022/08/24 01:49:56;;;;;;;7.63;4.80;;;16.30;99.90;;;;;;5070684;28;20647;-80
2022/08/24 01:52:25;;;;;;;4.60;4.13;;;16.30;99.90;;;;;;5070715;28;21306;-80
2022/08/24 01:54:53;;;;;;;4.43;4.10;;;16.20;99.90;;;;;;5069876;28;20628;-81
2022/08/24 01:57:20;;;;;;;4.77;4.37;;;16.20;99.90;;;;;;5068160;28;20664;-82
2022/08/24 01:59:48;;;;;;;5.70;5.20;;;16.20;99.90;;;;;;5070432;28;20745;-80
2022/08/24 02:02:18;;;;;;;5.10;4.60;;;16.20;99.90;;;;;;5070176;28;20628;-81
2022/08/24 02:04:45;;;;;;;5.03;4.63;;;16.20;99.90;;;;;;5068544;28;21525;-81
2022/08/24 02:07:12;;;;;;;5.80;5.17;;;16.10;99.90;;;;;;5070013;28;20670;-81
2022/08/24 02:09:39;;;;;;;5.63;5.20;;;16.10;99.90;;;;;;5070979;28;20647;-81
2022/08/24 02:12:07;;;;;;;7.07;4.60;;;16.10;99.90;;;;;;5068893;28;20641;-80
2022/08/24 02:14:35;;;;;;;5.20;4.70;;;16.10;99.90;;;;;;5068928;28;20663;-80
2022/08/24 02:17:05;;;;;;;4.90;4.50;;;16.00;99.90;;;;;;5068449;28;20651;-80
2022/08/24 02:19:33;;;;;;;6.13;5.33;;;16.00;99.90;;;;;;5070289;28;20629;-79
2022/08/24 02:22:01;;;;;;;6.47;5.87;;;16.00;99.90;;;;;;5072538;28;20632;-82
2022/08/24 02:24:28;;;;;;;4.77;4.30;;;16.00;99.90;;;;;;5073299;28;20649;-80
2022/08/24 02:26:55;;;;;;;5.10;4.63;;;15.90;99.90;;;;;;5071468;28;20632;-81
2022/08/24 02:29:22;;;;;;;5.40;5.00;;;15.90;99.90;;;;;;5073136;28;21561;-81
2022/08/24 02:31:48;;;;;;;5.60;5.10;;;15.80;99.90;;;;;;5072623;28;21244;-80
2022/08/24 02:34:17;;;;;;;5.53;5.03;;;15.80;99.90;;;;;;5072732;28;20797;-81
2022/08/24 02:36:44;;;;;;;6.20;5.70;;;15.80;99.90;;;;;;5073179;28;20639;-80
2022/08/24 02:39:11;;;;;;;8.50;5.23;;;15.80;99.90;;;;;;5075862;28;20663;-81
2022/08/24 02:41:38;;;;;;;5.20;4.80;;;15.70;99.90;;;;;;5070368;28;21035;-82
2022/08/24 02:44:11;;;;;;;5.30;4.90;;;15.70;99.90;;;;;;5071448;28;21337;-81
2022/08/24 02:46:38;;;;;;;5.47;5.07;;;15.70;99.90;;;;;;5071704;28;20612;-82
2022/08/24 02:49:06;;;;;;;7.53;5.20;;;15.60;99.90;;;;;;5074562;28;20632;-81
2022/08/24 02:51:34;;;;;;;8.73;5.87;;;15.60;99.90;;;;;;5074660;28;20625;-81
2022/08/24 02:54:04;;;;;;;5.20;4.80;;;15.60;99.90;;;;;;5072950;28;20652;-81
2022/08/24 02:56:31;;;;;;;5.90;5.40;;;15.60;99.90;;;;;;5070480;28;20713;-81
2022/08/24 02:58:58;;;;;;;5.33;4.80;;;15.60;99.90;;;;;;5072606;28;20746;-82
2022/08/24 03:01:25;;;;;;;5.43;5.03;;;15.60;99.90;;;;;;5073774;28;20674;-82
2022/08/24 03:03:52;;;;;;;5.23;4.73;;;15.50;99.90;;;;;;5073380;28;20660;-82
2022/08/24 03:06:19;;;;;;;5.70;4.80;;;15.50;99.90;;;;;;5073099;28;20632;-82
2022/08/24 03:08:47;;;;;;;6.17;5.50;;;15.50;99.90;;;;;;5073436;28;20612;-82
2022/08/24 03:11:15;;;;;;;6.03;5.50;;;15.50;99.90;;;;;;5072133;28;21117;-82
2022/08/24 03:13:42;;;;;;;6.10;5.60;;;15.50;99.90;;;;;;5072681;28;20658;-81
2022/08/24 03:16:09;;;;;;;5.33;4.93;;;15.40;99.90;;;;;;5072073;28;21301;-81
2022/08/24 03:18:36;;;;;;;6.73;5.27;;;15.40;99.90;;;;;;5073942;28;20664;-81
2022/08/24 03:21:03;;;;;;;6.03;5.50;;;15.40;99.90;;;;;;5073150;28;21019;-81
2022/08/24 03:23:30;;;;;;;6.33;5.10;;;15.40;99.90;;;;;;5073150;28;20662;-81
2022/08/24 03:25:58;;;;;;;6.43;5.60;;;15.40;99.90;;;;;;5070563;28;20636;-81
2022/08/24 03:28:26;;;;;;;6.90;6.30;;;15.30;99.90;;;;;;5072479;28;20729;-82
2022/08/24 03:30:53;;;;;;;5.73;5.33;;;15.30;99.90;;;;;;5072180;28;20632;-81
2022/08/24 03:33:20;;;;;;;5.23;4.73;;;15.30;99.90;;;;;;5070686;28;20656;-81
2022/08/24 03:35:47;;;;;;;6.07;5.57;;;15.30;99.90;;;;;;5071892;28;20967;-81
2022/08/24 03:38:15;;;;;;;6.10;5.60;;;15.20;99.90;;;;;;5072328;28;21144;-80
2022/08/24 03:40:42;;;;;;;5.63;5.23;;;15.20;99.90;;;;;;5072446;28;20678;-80
2022/08/24 03:43:44;;;;;;;5.50;5.10;;;15.10;99.90;;;;;;5073906;28;21022;-79
2022/08/24 03:45:59;;;;;;;4.80;4.50;;;15.10;99.90;;;;;;5071767;28;20613;-79
2022/08/24 03:48:27;;;;;;;5.13;4.73;;;15.10;99.90;;;;;;5071911;28;21435;-79
2022/08/24 03:50:54;;;;;;;5.80;5.20;;;15.10;99.90;;;;;;5070708;28;20629;-79
2022/08/24 03:53:21;;;;;;;6.90;6.30;;;15.10;99.90;;;;;;5071763;28;20652;-80
2022/08/24 03:55:48;;;;;;;5.97;5.47;;;15.20;99.90;;;;;;5070488;28;21217;-79
2022/08/24 03:58:16;;;;;;;6.13;5.20;;;15.20;99.90;;;;;;5072738;28;20689;-80
2022/08/24 04:00:43;;;;;;;6.70;5.30;;;15.10;99.90;;;;;;5073540;28;20652;-80
2022/08/24 04:03:10;;;;;;;5.70;5.30;;;15.10;99.90;;;;;;5072688;28;20979;-79
2022/08/24 04:05:41;;;;;;;6.20;5.70;;;15.10;99.90;;;;;;5071598;28;20647;-80
2022/08/24 04:08:08;;;;;;;5.70;5.20;;;15.10;99.90;;;;;;5071529;28;20987;-79
2022/08/24 04:10:38;;;;;;;5.70;5.30;;;15.00;99.90;;;;;;5069867;28;20636;-80
2022/08/24 04:13:07;;;;;;;6.20;5.80;;;14.90;99.90;;;;;;5071351;28;20644;-80
2022/08/24 04:15:40;;;;;;;5.80;5.20;;;14.90;99.90;;;;;;5075591;28;20693;-80
2022/08/24 04:18:07;;;;;;;6.70;5.90;;;14.90;99.90;;;;;;5071951;28;21045;-80
2022/08/24 04:20:38;;;;;;;5.90;5.50;;;14.90;99.90;;;;;;5072466;28;20630;-80
2022/08/24 04:23:05;;;;;;;6.43;5.90;;;14.90;99.90;;;;;;5072100;28;20686;-80
2022/08/24 04:25:32;;;;;;;7.27;6.57;;;14.80;99.90;;;;;;5072348;28;20632;-80
2022/08/24 04:27:59;;;;;;;7.70;6.60;;;14.80;99.90;;;;;;5070587;28;20636;-80
2022/08/24 04:30:26;;;;;;;6.83;6.23;;;14.80;99.90;;;;;;5070849;28;20632;-79
2022/08/24 04:32:54;;;;;;;6.63;6.03;;;14.80;99.90;;;;;;5071409;28;20652;-80
2022/08/24 04:35:21;;;;;;;7.60;6.70;;;14.70;99.90;;;;;;5070914;28;21334;-80
2022/08/24 04:37:47;;;;;;;6.53;5.83;;;14.70;99.90;;;;;;5070082;28;21221;-80
2022/08/24 04:40:14;;;;;;;6.30;5.70;;;14.80;99.90;;;;;;5070881;28;20635;-80
2022/08/24 04:42:41;;;;;;;7.07;6.10;;;14.90;99.90;;;;;;5071409;28;20636;-80
2022/08/24 04:45:09;;;;;;;7.03;6.30;;;14.90;99.90;;;;;;5070396;28;20632;-80
2022/08/24 04:47:36;;;;;;;6.23;5.73;;;14.90;99.90;;;;;;5070450;28;20670;-80
2022/08/24 04:50:06;;;;;;;6.27;5.70;;;14.80;99.90;;;;;;5071577;28;20624;-80
2022/08/24 04:52:32;;;;;;;7.57;6.63;;;14.80;99.90;;;;;;5071120;28;20625;-80
2022/08/24 04:54:59;;;;;;;6.73;6.23;;;14.80;99.90;;;;;;5069632;28;21428;-80
2022/08/24 04:57:26;;;;;;;6.37;5.90;;;14.80;99.90;;;;;;5070614;28;20635;-80
2022/08/24 04:59:58;;;;;;;6.47;6.07;;;14.90;99.90;;;;;;5070348;28;20660;-80
2022/08/24 05:02:25;;;;;;;6.73;6.27;;;14.90;99.90;;;;;;5070720;28;20660;-80
2022/08/24 05:04:52;;;;;;;7.07;6.43;;;14.90;99.90;;;;;;5070534;28;20636;-80
2022/08/24 05:07:20;;;;;;;6.33;5.77;;;14.90;99.90;;;;;;5071039;28;20710;-80
2022/08/24 05:09:47;;;;;;;7.30;5.93;;;15.00;99.90;;;;;;5070298;28;20775;-80
2022/08/24 05:12:14;;;;;;;6.30;5.80;;;15.10;99.90;;;;;;5070407;28;20631;-80
2022/08/24 05:14:41;;;;;;;6.00;5.60;;;15.10;99.90;;;;;;5070485;28;20686;-80
2022/08/24 05:17:08;;;;;;;6.17;5.77;;;15.10;99.90;;;;;;5071673;28;20636;-80
2022/08/24 05:19:35;;;;;;;6.30;5.70;;;15.20;99.90;;;;;;5069749;28;20710;-80
2022/08/24 05:22:02;;;;;;;9.10;6.00;;;15.20;99.90;;;;;;5070885;28;20611;-80
2022/08/24 05:24:30;;;;;;;6.00;5.50;;;15.20;99.90;;;;;;5070312;28;21246;-80
2022/08/24 05:26:59;;;;;;;6.03;5.63;;;15.30;99.90;;;;;;5068508;28;20647;-80
2022/08/24 05:29:25;;;;;;;9.07;6.00;;;15.30;99.90;;;;;;5071114;28;20637;-80
2022/08/24 05:31:53;;;;;;;6.53;5.40;;;15.40;99.90;;;;;;5070683;28;20633;-80
2022/08/24 05:34:19;;;;;;;7.40;6.30;;;15.60;99.90;;;;;;5070286;28;20667;-80
2022/08/24 05:36:46;;;;;;;8.73;6.87;;;15.60;99.90;;;;;;5070121;28;20636;-80
2022/08/24 05:39:14;;;;;;;7.87;6.73;;;15.70;99.90;;;;;;5070499;28;20739;-80
2022/08/24 05:41:43;;;;;;;7.50;6.33;;;15.80;99.90;;;;;;5068180;28;20647;-80
2022/08/24 05:44:11;;;;;;;6.57;6.07;;;15.90;99.90;;;;;;5070170;28;20656;-80
2022/08/24 05:46:38;;;;;;;7.60;6.97;;;16.00;99.90;;;;;;5069409;28;20648;-79
2022/08/24 05:49:06;;;;;;;7.63;6.97;;;16.10;99.90;;;;;;5070518;28;20735;-79
2022/08/24 05:51:34;;;;;;;7.33;6.73;;;16.10;99.90;;;;;;5069913;28;20628;-80
2022/08/24 05:54:03;;;;;;;7.70;7.10;;;16.20;99.90;;;;;;5069489;28;21027;-79
2022/08/24 05:56:30;;;;;;;9.00;7.10;;;16.30;99.90;;;;;;5069570;28;20665;-78
2022/08/24 05:58:59;;;;;;;7.27;6.63;;;16.30;99.90;;;;;;5075027;28;20663;-79
2022/08/24 06:01:27;;;;;;;13.47;7.60;;;16.40;99.90;;;;;;5074333;28;20728;-79
2022/08/24 06:03:55;;;;;;;6.70;6.07;;;16.50;99.90;;;;;;5074034;28;20662;-79
2022/08/24 06:06:23;;;;;;;6.40;5.80;;;16.60;99.90;;;;;;5073630;28;20632;-79
2022/08/24 06:08:53;;;;;;;6.73;6.07;;;16.70;99.90;;;;;;5073925;28;21462;-79
2022/08/24 06:11:23;;;;;;;11.00;6.70;;;16.80;99.90;;;;;;5072866;28;20638;-79
2022/08/24 06:13:50;;;;;;;6.57;6.07;;;16.90;99.90;;;;;;5073302;28;21016;-80
2022/08/24 06:16:18;;;;;;;6.73;6.03;;;16.90;99.90;;;;;;5071865;28;20995;-78
2022/08/24 06:18:45;;;;;;;8.27;5.67;;;17.00;99.90;;;;;;5071594;28;20664;-81
2022/08/24 06:21:14;;;;;;;6.23;5.73;;;17.10;99.90;;;;;;5074052;28;20622;-80
2022/08/24 06:23:42;;;;;;;7.00;6.30;;;17.20;99.90;;;;;;5074652;28;20660;-79
2022/08/24 06:28:56;;;;;;;5.23;4.83;;;17.40;99.90;;;;;;5074053;28;20611;-80
2022/08/24 06:31:24;;;;;;;6.27;5.70;;;17.50;99.90;;;;;;5072428;28;20728;-80
2022/08/24 06:33:51;;;;;;;8.00;5.00;;;17.60;99.90;;;;;;5073031;28;20660;-80
2022/08/24 06:36:18;;;;;;;5.63;5.13;;;17.70;99.90;;;;;;5073056;28;20624;-80
2022/08/24 06:38:44;;;;;;;5.60;5.10;;;17.70;99.90;;;;;;5072679;28;20668;-80
2022/08/24 06:41:12;;;;;;;5.53;4.83;;;17.80;99.90;;;;;;5072955;28;20631;-80
2022/08/24 06:43:39;;;;;;;5.20;4.70;;;17.90;99.90;;;;;;5073369;28;20640;-80
2022/08/24 06:46:06;;;;;;;6.40;5.10;;;18.00;99.90;;;;;;5073062;28;20749;-80
2022/08/24 06:48:35;;;;;;;6.23;5.63;;;18.00;99.90;;;;;;5073603;28;20690;-80
2022/08/24 06:51:01;;;;;;;18.37;5.13;;;18.10;99.90;;;;;;5073858;28;21166;-80
2022/08/24 06:53:28;;;;;;;5.67;5.10;;;18.20;99.90;;;;;;5072955;28;20645;-80
2022/08/24 06:55:57;;;;;;;5.13;4.63;;;18.30;99.90;;;;;;5071316;28;21103;-80
2022/08/24 06:58:26;;;;;;;5.93;4.63;;;18.40;99.90;;;;;;5074368;28;20644;-78
2022/08/24 07:00:53;;;;;;;5.17;4.70;;;18.60;99.90;;;;;;5073389;28;21040;-81
2022/08/24 07:03:22;;;;;;;4.40;4.00;;;18.70;99.90;;;;;;5073941;28;20718;-79
2022/08/24 07:05:57;;;;;;;4.40;4.00;;;18.80;99.90;;;;;;5072547;28;20618;-80
2022/08/24 07:08:24;;;;;;;5.20;4.20;;;19.00;99.90;;;;;;5075790;28;20654;-80
2022/08/24 07:10:51;;;;;;;4.40;4.00;;;19.10;99.90;;;;;;5075654;28;20651;-79
2022/08/24 07:13:18;;;;;;;4.40;4.07;;;19.10;99.90;;;;;;5076211;28;21023;-79
2022/08/24 07:15:45;;;;;;;4.20;3.80;;;19.20;99.90;;;;;;5073086;28;20639;-79
2022/08/24 07:18:13;;;;;;;3.77;3.23;;;19.30;99.90;;;;;;5073151;28;20736;-80
2022/08/24 07:20:41;;;;;;;5.97;3.87;;;19.40;99.90;;;;;;5072237;28;20690;-80
2022/08/24 07:23:11;;;;;;;3.73;3.50;;;19.60;99.90;;;;;;5073590;28;20655;-80
2022/08/24 07:25:38;;;;;;;3.83;3.40;;;19.60;99.90;;;;;;5070820;28;21399;-80
2022/08/24 07:28:04;;;;;;;3.77;3.50;;;19.70;99.90;;;;;;5072716;28;20628;-80
2022/08/24 07:30:31;;;;;;;4.23;3.70;;;19.70;99.90;;;;;;5072463;28;20632;-80
2022/08/24 07:32:58;;;;;;;4.53;4.07;;;19.90;99.90;;;;;;5071565;28;20664;-80
2022/08/24 07:35:26;;;;;;;4.50;4.10;;;19.90;99.90;;;;;;5071326;28;20723;-80
2022/08/24 07:37:55;;;;;;;4.80;4.13;;;20.10;99.90;;;;;;5072934;28;21114;-79
2022/08/24 07:40:23;;;;;;;5.53;4.10;;;20.20;99.90;;;;;;5070770;28;20660;-80
2022/08/24 07:42:52;;;;;;;4.10;3.80;;;20.30;99.90;;;;;;5071941;28;21042;-80
2022/08/24 07:45:21;;;;;;;5.63;4.03;;;20.30;99.90;;;;;;5070840;28;20624;-80
2022/08/24 07:47:48;;;;;;;4.03;3.50;;;20.40;99.90;;;;;;5071828;28;20640;-79
2022/08/24 07:50:16;;;;;;;3.40;3.13;;;20.50;99.90;;;;;;5071447;28;20631;-80
2022/08/24 07:52:43;;;;;;;5.47;4.83;;;20.70;99.90;;;;;;5071639;28;20662;-80
2022/08/24 07:55:12;;;;;;;5.23;3.60;;;20.70;99.90;;;;;;5069321;28;20639;-80
2022/08/24 07:57:40;;;;;;;3.90;3.50;;;20.70;99.90;;;;;;5071204;28;21090;-79
2022/08/24 08:00:11;;;;;;;3.33;3.10;;;20.70;99.90;;;;;;5072441;28;20672;-80
2022/08/24 08:02:40;;;;;;;6.90;3.73;;;20.90;99.90;;;;;;5071642;28;20628;-80
2022/08/24 08:05:07;;;;;;;8.10;3.20;;;21.00;99.90;;;;;;5071528;28;20727;-80
2022/08/24 08:07:34;;;;;;;3.10;2.80;;;21.10;99.90;;;;;;5070806;28;20636;-80
2022/08/24 08:10:03;;;;;;;3.47;3.17;;;21.20;99.90;;;;;;5071848;28;20646;-80
2022/08/24 08:12:30;;;;;;;3.80;2.87;;;21.40;99.90;;;;;;5071238;28;21006;-80
2022/08/24 08:14:58;;;;;;;3.40;2.90;;;21.50;99.90;;;;;;5073900;28;20636;-80
2022/08/24 08:17:25;;;;;;;3.60;3.10;;;21.60;99.90;;;;;;5085499;28;20627;-80
2022/08/24 08:19:52;;;;;;;3.33;3.03;;;21.70;99.90;;;;;;5081115;28;20672;-80
2022/08/24 08:25:06;;;;;;;3.50;3.20;;;21.90;99.90;;;;;;5082157;28;20635;-80
2022/08/24 08:27:34;;;;;;;3.97;3.20;;;22.10;99.90;;;;;;5084118;28;20731;-80
2022/08/24 08:30:03;;;;;;;3.30;3.00;;;22.20;99.90;;;;;;5082800;28;20630;-80
2022/08/24 08:32:30;;;;;;;4.77;3.13;;;22.30;99.90;;;;;;5086624;28;20635;-80
2022/08/24 08:34:56;;;;;;;3.43;3.13;;;22.40;99.50;;;;;;5079342;28;20644;-80
2022/08/24 08:37:24;;;;;;;6.17;3.47;;;22.50;99.40;;;;;;5083955;28;20649;-80
2022/08/24 08:39:51;;;;;;;4.67;3.23;;;22.60;99.00;;;;;;5085316;28;20664;-80
2022/08/24 08:42:37;;;;;;;4.27;3.27;;;22.80;98.70;;;;;;5079809;28;20629;-80
2022/08/24 08:45:25;;;;;;;3.50;3.20;;;22.90;97.90;;;;;;5084378;28;20636;-80
2022/08/24 08:48:31;;;;;;;4.40;3.07;;;23.00;97.50;;;;;;5081535;28;20625;-80
2022/08/24 08:51:42;;;;;;;8.90;6.50;;;23.10;96.60;;;;;;5082175;28;20972;-80
2022/08/24 08:54:32;;;;;;;3.90;2.80;;;23.20;95.60;;;;;;5083069;28;20713;-80
2022/08/24 08:57:13;;;;;;;4.10;3.40;;;23.30;95.10;;;;;;5083165;28;20743;-80
2022/08/24 09:00:03;;;;;;;4.23;3.23;;;23.40;94.80;;;;;;5083969;28;20655;-80
2022/08/24 09:02:57;;;;;;;2.97;2.73;;;23.60;94.40;;;;;;5081133;28;20685;-80
2022/08/24 09:05:47;;;;;;;3.67;2.97;;;23.80;93.80;;;;;;5077313;28;21261;-80
2022/08/24 09:08:27;;;;;;;5.20;2.30;;;23.90;93.10;;;;;;5067666;28;20650;-80
2022/08/24 09:10:56;;;;;;;2.33;2.13;;;23.90;92.70;;;;;;5082020;28;20625;-80
2022/08/24 09:13:42;;;;;;;3.90;2.80;;;24.10;92.70;;;;;;5080976;28;20656;-80
2022/08/24 09:16:25;;;;;;;3.23;2.30;;;24.30;92.10;;;;;;5082219;28;20708;-80
2022/08/24 09:19:05;;;;;;;2.83;2.37;;;24.30;91.40;;;;;;5082381;28;20623;-80
2022/08/24 09:21:51;;;;;;;2.10;2.00;;;24.50;91.10;;;;;;5085366;28;20620;-80
2022/08/24 09:24:47;;;;;;;2.67;2.03;;;24.70;90.90;;;;;;5083710;28;20643;-80
2022/08/24 09:27:26;;;;;;;2.53;2.33;;;24.80;90.20;;;;;;5078256;28;20627;-80
2022/08/24 09:30:05;;;;;;;2.50;2.30;;;24.90;89.90;;;;;;5084198;28;20608;-80
2022/08/24 09:32:45;;;;;;;4.47;2.20;;;25.10;90.00;;;;;;5081794;28;20617;-80
2022/08/24 09:35:18;;;;;;;2.43;1.90;;;25.20;88.30;;;;;;5080454;28;20631;-80
2022/08/24 09:37:59;;;;;;;2.67;1.40;;;25.40;85.20;;;;;;5079382;28;20623;-79
2022/08/24 09:40:38;;;;;;;2.30;1.90;;;25.50;82.00;;;;;;5080871;28;20718;-79
2022/08/24 09:43:41;;;;;;;1.80;1.63;;;25.70;83.70;;;;;;5083975;28;20771;-78
2022/08/24 09:46:46;;;;;;;3.00;1.67;;;25.80;78.70;;;;;;5069662;28;20632;-78
2022/08/24 09:49:44;;;;;;;2.37;1.70;;;25.90;79.90;;;;;;5032459;28;21010;-78
2022/08/24 09:52:39;;;;;;;1.70;1.60;;;26.10;78.50;;;;;;5082197;28;20639;-78
2022/08/24 09:55:38;;;;;;;2.50;1.40;;;26.30;78.30;;;;;;5081058;28;20713;-79
2022/08/24 09:58:18;;;;;;;2.80;1.77;;;26.50;79.50;;;;;;5080924;28;20653;-79
2022/08/24 10:00:47;;;;;;;1.80;1.70;;;26.60;78.60;;;;;;5081559;28;20659;-79
2022/08/24 10:03:26;;;;;;;15.47;3.07;;;26.70;76.70;;;;;;5078301;28;21199;-79
2022/08/24 10:06:03;;;;;;;2.40;2.20;;;26.80;77.30;;;;;;5082838;28;20702;-79
2022/08/24 10:08:46;;;;;;;2.70;1.73;;;26.90;75.90;;;;;;5083215;28;20624;-79
2022/08/24 10:11:23;;;;;;;2.27;1.73;;;27.00;75.40;;;;;;5076020;28;20680;-80
2022/08/24 10:14:00;;;;;;;2.97;2.20;;;27.20;76.40;;;;;;5084978;28;20644;-79
2022/08/24 10:16:38;;;;;;;4.03;2.20;;;27.40;74.60;;;;;;5082958;28;20616;-79
2022/08/24 10:19:26;;;;;;;7.60;2.13;;;27.60;74.20;;;;;;5079869;28;20624;-80
2022/08/24 10:22:03;;;;;;;3.63;2.33;;;27.70;74.70;;;;;;5085480;28;20645;-79
2022/08/24 10:24:52;;;;;;;2.03;1.90;;;28.00;74.50;;;;;;5083900;28;20652;-79
2022/08/24 10:27:37;;;;;;;1.70;1.60;;;28.20;71.60;;;;;;5077182;28;21023;-79
2022/08/24 10:30:19;;;;;;;2.87;2.20;;;28.50;70.00;;;;;;5078017;28;20600;-80
2022/08/24 10:32:56;;;;;;;2.87;2.00;;;28.50;68.20;;;;;;5077491;28;20648;-79
2022/08/24 10:35:27;;;;;;;2.10;1.90;;;28.80;69.20;;;;;;5082069;28;20631;-79
2022/08/24 10:41:24;;;;;;;1.90;1.80;;;29.20;66.20;;;;;;5080120;28;20636;-80
2022/08/24 10:44:12;;;;;;;1.97;1.77;;;29.50;66.40;;;;;;5085766;28;20655;-79
2022/08/24 10:46:50;;;;;;;6.30;2.50;;;29.80;64.80;;;;;;5085977;28;20689;-79
2022/08/24 10:49:40;;;;;;;1.77;1.67;;;29.90;62.70;;;;;;5082952;28;20624;-79
2022/08/24 10:52:26;;;;;;;2.10;1.90;;;30.20;62.50;;;;;;5085181;28;20954;-79
2022/08/24 10:54:55;;;;;;;7.77;2.63;;;30.50;61.50;;;;;;5086933;28;20625;-79
2022/08/24 10:57:33;;;;;;;3.70;1.87;;;30.70;60.50;;;;;;5087780;28;20623;-79
2022/08/24 11:00:07;;;;;;;3.60;1.77;;;31.10;59.00;;;;;;5082183;28;20774;-79
2022/08/24 11:02:36;;;;;;;1.60;1.50;;;31.30;59.10;;;;;;5085567;28;20620;-79
2022/08/24 11:05:06;;;;;;;1.60;1.50;;;31.50;56.40;;;;;;5085107;28;20655;-80
2022/08/24 11:07:35;;;;;;;4.77;4.37;;;31.60;55.30;;;;;;5088368;28;20647;-79
2022/08/24 11:10:06;;;;;;;3.63;1.43;;;31.70;55.80;;;;;;5084044;28;21162;-79
2022/08/24 11:12:39;;;;;;;1.77;1.37;;;31.80;54.80;;;;;;5085762;28;20620;-79
2022/08/24 11:15:19;;;;;;;2.53;1.67;;;31.90;55.10;;;;;;5084196;28;21032;-80
2022/08/24 11:17:54;;;;;;;1.83;1.73;;;32.00;53.70;;;;;;5083562;28;20635;-79
2022/08/24 11:20:27;;;;;;;1.67;1.57;;;32.10;54.10;;;;;;5084704;28;20659;-79
2022/08/24 11:23:01;;;;;;;1.90;1.70;;;32.30;53.90;;;;;;5084781;28;21324;-79
2022/08/24 11:25:32;;;;;;;1.67;1.57;;;32.60;52.90;;;;;;5081301;28;20751;-79
2022/08/24 11:28:05;;;;;;;1.77;1.53;;;32.80;51.50;;;;;;5085091;28;20638;-79
2022/08/24 11:30:37;;;;;;;2.13;1.60;;;32.90;52.10;;;;;;5087917;28;20612;-80
2022/08/24 11:33:25;;;;;;;5.53;1.70;;;33.20;50.20;;;;;;5082943;28;20648;-79
2022/08/24 11:35:52;;;;;;;1.57;1.47;;;33.40;49.30;;;;;;5083806;28;20646;-79
2022/08/24 11:38:22;;;;;;;1.47;1.37;;;33.60;48.60;;;;;;5087147;28;21177;-79
2022/08/24 11:40:53;;;;;;;1.87;1.77;;;33.70;46.90;;;;;;5080986;28;21028;-79
2022/08/24 11:43:33;;;;;;;1.40;1.30;;;33.80;46.70;;;;;;5085269;28;20646;-79
2022/08/24 11:46:14;;;;;;;4.47;1.97;;;33.80;46.40;;;;;;5082065;28;21117;-79
2022/08/24 11:48:52;;;;;;;2.10;1.60;;;34.10;47.20;;;;;;5081014;28;20715;-79
2022/08/24 11:51:29;;;;;;;1.90;1.57;;;34.40;46.40;;;;;;5085410;28;20619;-78
2022/08/24 11:54:03;;;;;;;2.53;1.70;;;34.70;46.10;;;;;;5082305;28;20647;-79
2022/08/24 11:56:39;;;;;;;1.60;1.50;;;34.90;45.40;;;;;;5084006;28;21090;-79
2022/08/24 11:59:16;;;;;;;2.23;1.67;;;35.10;43.60;;;;;;5069193;28;20711;-79
2022/08/24 12:01:49;;;;;;;1.60;1.50;;;35.10;43.30;;;;;;5080673;28;21263;-79
2022/08/24 12:04:44;;;;;;;1.67;1.50;;;35.00;43.60;;;;;;5081568;28;20635;-79
2022/08/24 12:07:23;;;;;;;1.43;1.33;;;34.90;43.60;;;;;;5078907;28;20640;-79
2022/08/24 12:10:12;;;;;;;3.70;1.27;;;35.10;42.90;;;;;;5083018;28;20986;-80
2022/08/24 12:12:46;;;;;;;3.70;1.43;;;35.50;42.90;;;;;;5080422;28;20690;-79
2022/08/24 12:15:18;;;;;;;3.53;1.33;;;35.80;42.60;;;;;;5080999;28;20611;-80
2022/08/24 12:17:52;;;;;;;1.90;1.80;;;36.00;41.10;;;;;;5081553;28;20217;-79
2022/08/24 12:20:48;;;;;;;1.37;1.27;;;35.90;40.50;;;;;;5085762;28;20334;-79
2022/08/24 12:23:20;;;;;;;1.50;1.40;;;36.10;40.20;;;;;;5070675;28;20226;-79
2022/08/24 12:26:03;;;;;;;1.87;1.30;;;36.20;39.50;;;;;;5080728;28;20201;-79
2022/08/24 12:28:35;;;;;;;4.75;1.38;;;36.60;39.20;;;;;;5084515;28;20205;-79
2022/08/24 12:31:12;;;;;;;1.27;1.13;;;36.90;38.50;;;;;;5082801;28;20603;-79
2022/08/24 12:33:46;;;;;;;1.50;1.30;;;37.10;37.60;;;;;;5080029;28;20708;-80
2022/08/24 12:36:20;;;;;;;3.60;1.20;;;37.20;37.10;;;;;;5080586;28;20198;-79
2022/08/24 12:38:55;;;;;;;1.83;1.23;;;37.30;36.20;;;;;;5081462;28;20202;-80
2022/08/24 12:41:28;;;;;;;1.42;1.33;;;37.00;35.00;;;;;;5078867;28;20230;-79
2022/08/24 12:44:02;;;;;;;1.50;1.40;;;36.80;35.10;;;;;;5082581;28;20250;-80
2022/08/24 12:46:31;;;;;;;2.25;1.55;;;36.90;35.50;;;;;;5081230;28;20213;-80
2022/08/24 12:49:04;;;;;;;3.50;1.27;;;36.90;34.80;;;;;;5080012;28;20289;-80
2022/08/24 12:51:50;;;;;;;1.00;0.82;;;36.90;34.50;;;;;;5081368;28;20208;-80
2022/08/24 12:54:46;;;;;;;1.60;1.50;;;36.40;33.40;;;;;;5080984;28;20278;-79
2022/08/24 12:57:29;;;;;;;1.73;1.30;;;35.50;34.00;;;;;;5078147;28;20201;-79
2022/08/24 13:00:01;;;;;;;1.53;1.43;;;35.40;35.30;;;;;;5077558;28;20312;-80
2022/08/24 13:02:36;;;;;;;1.73;1.47;;;35.80;36.00;;;;;;5083832;28;20429;-79
2022/08/24 13:05:10;;;;;;;1.43;1.33;;;36.00;35.20;;;;;;5081861;28;20668;-80
2022/08/24 13:07:41;;;;;;;1.30;1.20;;;36.20;35.90;;;;;;5081070;28;20576;-80
2022/08/24 13:10:14;;;;;;;4.83;1.57;;;36.40;35.40;;;;;;5083374;28;20206;-79
2022/08/24 13:13:11;;;;;;;1.40;1.30;;;36.20;34.20;;;;;;5078622;28;20495;-80
2022/08/24 13:15:57;;;;;;;1.93;1.23;;;36.20;33.40;;;;;;5080862;28;20820;-80
2022/08/24 13:18:49;;;;;;;1.57;1.47;;;36.10;33.70;;;;;;5079443;28;20209;-80
2022/08/24 13:21:32;;;;;;;1.87;1.60;;;35.60;35.00;;;;;;5084505;28;20239;-80